createdAt,value
2022-09-20T00:01:32.422Z,99793.75
2022-09-20T00:04:05.357Z,99807.97
2022-09-20T00:06:34.040Z,99807.22
2022-09-20T00:09:03.050Z,99806.25
2022-09-20T00:11:33.750Z,99805.44
2022-09-20T00:14:02.930Z,99805.31
2022-09-20T00:16:39.095Z,99812.25
2022-09-20T00:19:08.987Z,99811.31
2022-09-20T00:21:37.805Z,99808.69
2022-09-20T00:24:05.962Z,99811.28
2022-09-20T00:26:33.401Z,99807.91
2022-09-20T00:29:01.643Z,99812.25
2022-09-20T00:31:29.149Z,99815.50
2022-09-20T00:34:16.847Z,99822.56
2022-09-20T00:36:44.878Z,99814.47
2022-09-20T00:39:14.560Z,99817.41
2022-09-20T00:41:41.640Z,99823.16
2022-09-20T00:44:48.836Z,99823.66
2022-09-20T00:47:48.324Z,99819.56
2022-09-20T00:50:38.018Z,99822.53
2022-09-20T00:53:32.064Z,99816.91
2022-09-20T00:56:16.284Z,99814.22
2022-09-20T00:58:54.696Z,99818.00
2022-09-20T01:01:21.888Z,99816.91
2022-09-20T01:03:50.058Z,99822.00
2022-09-20T01:06:17.956Z,99815.81
2022-09-20T01:08:50.815Z,99818.56
2022-09-20T01:11:18.206Z,99808.94
2022-09-20T01:13:45.128Z,99807.88
2022-09-20T01:16:15.168Z,99812.06
2022-09-20T01:18:44.771Z,99816.47
2022-09-20T01:21:12.542Z,99811.69
2022-09-20T01:24:17.589Z,99816.75
2022-09-20T01:27:25.750Z,99815.19
2022-09-20T01:30:12.005Z,99825.00
2022-09-20T01:33:31.242Z,99821.34
2022-09-20T01:36:03.426Z,99820.75
2022-09-20T01:38:37.719Z,99828.44
2022-09-20T01:41:14.548Z,99833.03
2022-09-20T01:44:06.847Z,99830.25
2022-09-20T01:46:36.970Z,99830.09
2022-09-20T01:49:47.003Z,99837.81
2022-09-20T01:52:34.390Z,99834.41
2022-09-20T01:55:25.078Z,99834.25
2022-09-20T01:58:23.818Z,99834.44
2022-09-20T02:01:21.420Z,99834.44
2022-09-20T02:04:38.250Z,99838.31
2022-09-20T02:07:52.387Z,99834.53
2022-09-20T02:10:53.445Z,99837.34
2022-09-20T02:13:39.913Z,99837.47
2022-09-20T02:16:29.119Z,99841.88
2022-09-20T02:19:46.785Z,99841.63
2022-09-20T02:22:27.589Z,99840.19
2022-09-20T02:25:20.497Z,99838.19
2022-09-20T02:28:18.391Z,99840.06
2022-09-20T02:31:04.323Z,99846.38
2022-09-20T02:34:19.160Z,99847.16
2022-09-20T02:37:14.206Z,99848.22
2022-09-20T02:40:02.434Z,99846.56
2022-09-20T02:42:47.565Z,99846.44
2022-09-20T02:45:54.528Z,99852.72
2022-09-20T02:48:34.544Z,99847.16
2022-09-20T02:51:31.677Z,99843.69
2022-09-20T02:54:22.207Z,99841.84
2022-09-20T02:57:11.067Z,99848.09
2022-09-20T03:00:32.384Z,99843.72
2022-09-20T03:03:54.254Z,99862.44
2022-09-20T03:06:40.053Z,99849.25
2022-09-20T03:09:43.446Z,99857.91
2022-09-20T03:12:38.159Z,99864.09
2022-09-20T03:15:36.473Z,99862.28
2022-09-20T03:18:20.299Z,99873.94
2022-09-20T03:21:33.897Z,99872.66
2022-09-20T03:24:30.904Z,99867.34
2022-09-20T03:27:57.880Z,99867.72
2022-09-20T03:30:48.589Z,99861.69
2022-09-20T03:33:24.235Z,99858.25
2022-09-20T03:36:36.201Z,99867.44
2022-09-20T03:39:27.365Z,99867.50
2022-09-20T03:42:25.379Z,99874.03
2022-09-20T03:45:07.047Z,99876.88
2022-09-20T03:48:37.042Z,99872.41
2022-09-20T03:51:57.375Z,99878.22
2022-09-20T03:55:05.664Z,99878.34
2022-09-20T03:58:21.776Z,99879.19
2022-09-20T04:01:25.154Z,99875.69
2022-09-20T04:05:03.243Z,99878.22
2022-09-20T04:07:54.717Z,99883.59
2022-09-20T04:10:34.219Z,99887.50
2022-09-20T04:13:32.123Z,99900.44
2022-09-20T04:16:23.583Z,99894.06
2022-09-20T04:19:14.229Z,99895.94
2022-09-20T04:22:00.364Z,99908.19
2022-09-20T04:25:04.367Z,99897.06
2022-09-20T04:27:42.277Z,99903.22
2022-09-20T04:30:30.279Z,99903.19
2022-09-20T04:33:06.476Z,99895.13
2022-09-20T04:35:57.601Z,99897.81
2022-09-20T04:38:26.582Z,99909.97
2022-09-20T04:41:37.949Z,99919.94
2022-09-20T04:44:38.763Z,99921.63
2022-09-20T04:47:32.968Z,99921.50
2022-09-20T04:50:11.088Z,99929.63
2022-09-20T04:53:22.780Z,99937.34
2022-09-20T04:56:36.001Z,99938.19
2022-09-20T04:59:10.731Z,99934.44
2022-09-20T05:02:15.420Z,99946.19
2022-09-20T05:05:20.207Z,99948.19
2022-09-20T05:08:42.911Z,99951.38
2022-09-20T05:11:42.400Z,99953.59
2022-09-20T05:14:37.135Z,99958.97
2022-09-20T05:17:36.154Z,99960.69
2022-09-20T05:20:40.421Z,99969.13
2022-09-20T05:23:21.032Z,99977.28
2022-09-20T05:26:10.918Z,99965.66
2022-09-20T05:29:10.192Z,99975.50
2022-09-20T05:31:58.230Z,99979.50
2022-09-20T05:34:44.886Z,99973.31
2022-09-20T05:37:36.869Z,99977.31
2022-09-20T05:40:31.937Z,99990.31
2022-09-20T05:43:13.149Z,99979.69
2022-09-20T05:46:14.117Z,99980.88
2022-09-20T05:48:58.569Z,99994.09
2022-09-20T05:52:28.178Z,99996.78
2022-09-20T05:55:25.352Z,99999.34
2022-09-20T05:58:38.850Z,99999.41
2022-09-20T06:01:30.608Z,100001.63
2022-09-20T06:04:23.760Z,99986.63
2022-09-20T06:07:38.630Z,100002.13
2022-09-20T06:10:25.765Z,100007.69
2022-09-20T06:13:43.686Z,100007.31
2022-09-20T06:16:25.506Z,100003.22
2022-09-20T06:19:20.127Z,100006.47
2022-09-20T06:21:58.137Z,100016.13
2022-09-20T06:24:53.478Z,100005.97
2022-09-20T06:27:33.730Z,100018.03
2022-09-20T06:30:07.912Z,100023.53
2022-09-20T06:32:34.823Z,100020.97
2022-09-20T06:35:04.776Z,100015.88
2022-09-20T06:38:17.639Z,100023.78
2022-09-20T06:41:19.490Z,100031.97
2022-09-20T06:43:48.541Z,100039.31
2022-09-20T06:46:16.214Z,100040.22
2022-09-20T06:48:43.300Z,100041.97
2022-09-20T06:51:11.123Z,100044.50
2022-09-20T06:53:41.042Z,100043.19
2022-09-20T06:56:22.749Z,100041.34
2022-09-20T06:58:49.819Z,100051.19
2022-09-20T07:01:26.587Z,100053.56
2022-09-20T07:03:56.460Z,100056.38
2022-09-20T07:06:23.401Z,100060.31
2022-09-20T07:08:50.332Z,100050.63
2022-09-20T07:11:18.327Z,100062.22
2022-09-20T07:13:49.938Z,100057.00
2022-09-20T07:16:17.022Z,100052.53
2022-09-20T07:18:44.132Z,100061.31
2022-09-20T07:21:16.939Z,100060.94
2022-09-20T07:23:46.087Z,100067.81
2022-09-20T07:26:23.645Z,100071.47
2022-09-20T07:28:51.218Z,100082.78
2022-09-20T07:31:20.519Z,100081.34
2022-09-20T07:33:47.576Z,100081.34
2022-09-20T07:36:15.115Z,100084.88
2022-09-20T07:38:43.092Z,100083.03
2022-09-20T07:41:10.766Z,100093.09
2022-09-20T07:43:37.945Z,100093.13
2022-09-20T07:46:05.417Z,100087.78
2022-09-20T07:48:36.823Z,100091.78
2022-09-20T07:51:09.168Z,100091.34
2022-09-20T07:53:36.956Z,100096.13
2022-09-20T07:56:11.492Z,100090.03
2022-09-20T07:58:38.871Z,100101.75
2022-09-20T08:01:10.016Z,100109.78
2022-09-20T08:03:37.363Z,100103.25
2022-09-20T08:06:07.228Z,100111.38
2022-09-20T08:08:36.917Z,100103.53
2022-09-20T08:11:17.292Z,100116.22
2022-09-20T08:14:07.049Z,100119.94
2022-09-20T08:16:40.649Z,100116.72
2022-09-20T08:19:08.140Z,100120.41
2022-09-20T08:21:39.865Z,100112.50
2022-09-20T08:24:07.056Z,100120.59
2022-09-20T08:26:35.886Z,100118.16
2022-09-20T08:29:05.822Z,100128.91
2022-09-20T08:31:37.441Z,100121.66
2022-09-20T08:34:06.912Z,100129.41
2022-09-20T08:36:37.378Z,100126.47
2022-09-20T08:42:39.159Z,100121.84
2022-09-20T08:45:23.347Z,100131.50
2022-09-20T08:48:05.699Z,100122.47
2022-09-20T08:50:34.292Z,100128.84
2022-09-20T08:53:05.839Z,100130.56
2022-09-20T08:55:37.389Z,100132.19
2022-09-20T08:58:08.515Z,100138.53
2022-09-20T09:00:37.969Z,100136.69
2022-09-20T09:03:13.513Z,100135.47
2022-09-20T09:05:53.957Z,100138.19
2022-09-20T09:08:28.650Z,100140.03
2022-09-20T09:11:09.186Z,100140.03
2022-09-20T09:14:01.588Z,100143.91
2022-09-20T09:16:35.487Z,100138.78
2022-09-20T09:19:34.454Z,100146.66
2022-09-20T09:22:05.484Z,100145.84
2022-09-20T09:24:32.775Z,100144.75
2022-09-20T09:27:16.447Z,100155.44
2022-09-20T09:29:55.511Z,100156.38
2022-09-20T09:32:31.208Z,100151.19
2022-09-20T09:35:29.720Z,100158.16
2022-09-20T09:38:02.429Z,100150.19
2022-09-20T09:40:31.780Z,100154.66
2022-09-20T09:43:02.780Z,100160.00
2022-09-20T09:45:39.318Z,100155.53
2022-09-20T09:48:33.083Z,100156.53
2022-09-20T09:51:20.320Z,100157.53
2022-09-20T09:53:49.310Z,100156.28
2022-09-20T09:56:41.069Z,100151.97
2022-09-20T09:59:19.719Z,100155.94
2022-09-20T10:02:04.367Z,100149.34
2022-09-20T10:04:39.379Z,100153.19
2022-09-20T10:07:39.229Z,100160.69
2022-09-20T10:10:18.401Z,100167.00
2022-09-20T10:12:59.445Z,100166.41
2022-09-20T10:16:23.677Z,100163.16
2022-09-20T10:19:24.860Z,100166.97
2022-09-20T10:23:06.703Z,100165.22
2022-09-20T10:26:09.923Z,100166.38
2022-09-20T10:29:45.633Z,100163.03
2022-09-20T10:32:22.418Z,100160.50
2022-09-20T10:35:27.703Z,100162.28
2022-09-20T10:38:26.285Z,100159.66
2022-09-20T10:41:45.507Z,100155.34
2022-09-20T10:44:18.893Z,100159.91
2022-09-20T10:47:09.136Z,100160.72
2022-09-20T10:49:39.409Z,100163.44
2022-09-20T10:52:21.217Z,100165.44
2022-09-20T10:55:04.138Z,100162.81
2022-09-20T10:57:49.921Z,100154.84
2022-09-20T11:00:58.052Z,100155.69
2022-09-20T11:03:37.147Z,100148.31
2022-09-20T11:06:20.151Z,100146.53
2022-09-20T11:08:54.218Z,100141.94
2022-09-20T11:11:43.810Z,100142.16
2022-09-20T11:14:19.398Z,100141.94
2022-09-20T11:16:47.931Z,100139.50
2022-09-20T11:19:33.935Z,100143.94
2022-09-20T11:22:11.805Z,100136.63
2022-09-20T11:25:29.464Z,100147.34
2022-09-20T11:28:20.613Z,100147.31
2022-09-20T11:31:14.233Z,100151.75
2022-09-20T11:33:49.271Z,100149.09
2022-09-20T11:36:40.696Z,100156.13
2022-09-20T11:39:37.789Z,100142.00
2022-09-20T11:42:06.585Z,100150.53
2022-09-20T11:44:42.435Z,100144.97
2022-09-20T11:47:49.899Z,100149.91
2022-09-20T11:50:34.670Z,100150.06
2022-09-20T11:53:32.163Z,100148.44
2022-09-20T11:56:20.573Z,100150.34
2022-09-20T11:59:02.738Z,100140.56
2022-09-20T12:01:41.789Z,100145.91
2022-09-20T12:04:35.221Z,100146.84
2022-09-20T12:07:31.037Z,100153.97
2022-09-20T12:10:08.515Z,100143.25
2022-09-20T12:12:47.048Z,100140.53
2022-09-20T12:15:31.627Z,100137.91
2022-09-20T12:17:58.432Z,100149.31
2022-09-20T12:20:39.829Z,100139.47
2022-09-20T12:23:38.317Z,100135.69
2022-09-20T12:26:20.927Z,100139.47
2022-09-20T12:28:55.673Z,100136.63
2022-09-20T12:31:23.016Z,100137.22
2022-09-20T12:34:10.502Z,100139.91
2022-09-20T12:36:43.717Z,100133.75
2022-09-20T12:39:16.191Z,100133.09
2022-09-20T12:42:28.169Z,100134.81
2022-09-20T12:45:17.543Z,100125.97
2022-09-20T12:47:54.729Z,100126.03
2022-09-20T12:50:41.453Z,100127.84
2022-09-20T12:53:16.789Z,100124.22
2022-09-20T12:56:02.055Z,100124.94
2022-09-20T12:58:53.663Z,100132.34
2022-09-20T13:01:23.505Z,100125.34
2022-09-20T13:03:51.118Z,100120.88
2022-09-20T13:06:19.222Z,100141.50
2022-09-20T13:09:05.447Z,100137.06
2022-09-20T13:11:44.920Z,100142.38
2022-09-20T13:14:26.883Z,100147.72
2022-09-20T13:17:22.105Z,100147.69
2022-09-20T13:19:51.194Z,100152.06
2022-09-20T13:22:28.324Z,100152.91
2022-09-20T13:25:02.708Z,100165.25
2022-09-20T13:27:40.239Z,100166.88
2022-09-20T13:30:25.591Z,100171.09
2022-09-20T13:32:52.967Z,100174.44
2022-09-20T13:35:32.402Z,100178.78
2022-09-20T13:38:08.801Z,100187.41
2022-09-20T13:40:44.903Z,100178.53
2022-09-20T13:43:49.405Z,100175.59
2022-09-20T13:46:43.512Z,100169.63
2022-09-20T13:49:24.532Z,100165.00
2022-09-20T13:51:52.246Z,100167.66
2022-09-20T13:54:33.358Z,100153.63
2022-09-20T13:57:12.049Z,100154.28
2022-09-20T13:59:46.712Z,100149.69
2022-09-20T14:02:33.005Z,100149.69
2022-09-20T14:05:03.709Z,100155.22
2022-09-20T14:07:32.150Z,100152.63
2022-09-20T14:10:00.020Z,100152.78
2022-09-20T14:12:27.532Z,100147.38
2022-09-20T14:14:55.099Z,100150.91
2022-09-20T14:17:24.776Z,100145.31
2022-09-20T14:19:54.656Z,100151.59
2022-09-20T14:22:28.033Z,100153.31
2022-09-20T14:25:14.088Z,100153.44
2022-09-20T14:27:41.159Z,100147.28
2022-09-20T14:30:35.242Z,100153.72
2022-09-20T14:33:05.208Z,100152.75
2022-09-20T14:35:32.522Z,100150.09
2022-09-20T14:38:08.682Z,100156.09
2022-09-20T14:40:45.772Z,100159.84
2022-09-20T14:43:33.065Z,100161.78
2022-09-20T14:46:12.226Z,100176.88
2022-09-20T14:48:41.385Z,100174.03
2022-09-20T14:51:22.227Z,100180.75
2022-09-20T14:54:13.920Z,100186.31
2022-09-20T14:56:49.256Z,100185.91
2022-09-20T14:59:26.634Z,100186.56
2022-09-20T15:02:15.346Z,100192.84
2022-09-20T15:04:59.248Z,100182.13
2022-09-20T15:07:26.717Z,100189.75
2022-09-20T15:09:54.008Z,100203.84
2022-09-20T15:12:21.642Z,100199.13
2022-09-20T15:14:49.164Z,100213.81
2022-09-20T15:17:19.475Z,100211.25
2022-09-20T15:19:47.854Z,100211.28
2022-09-20T15:22:15.670Z,100211.81
2022-09-20T15:24:43.069Z,100204.56
2022-09-20T15:27:12.298Z,100204.63
2022-09-20T15:29:39.463Z,100201.84
2022-09-20T15:32:10.470Z,100202.97
2022-09-20T15:34:37.457Z,100217.13
2022-09-20T15:37:04.944Z,100233.72
2022-09-20T15:39:31.860Z,100230.59
2022-09-20T15:41:58.790Z,100231.44
2022-09-20T15:44:25.827Z,100236.78
2022-09-20T15:46:53.665Z,100234.34
2022-09-20T15:49:21.732Z,100225.06
2022-09-20T15:51:48.726Z,100232.84
2022-09-20T15:54:15.976Z,100230.31
2022-09-20T15:56:43.210Z,100225.47
2022-09-20T15:59:13.432Z,100227.63
2022-09-20T16:01:43.506Z,100231.03
2022-09-20T16:04:12.940Z,100229.16
2022-09-20T16:06:42.894Z,100234.22
2022-09-20T16:09:10.786Z,100241.22
2022-09-20T16:11:39.072Z,100241.22
2022-09-20T16:14:06.936Z,100237.63
2022-09-20T16:16:39.918Z,100241.22
2022-09-20T16:19:20.308Z,100239.47
2022-09-20T16:21:56.606Z,100236.88
2022-09-20T16:24:34.465Z,100233.84
2022-09-20T16:27:05.181Z,100240.09
2022-09-20T16:29:33.622Z,100239.06
2022-09-20T16:32:03.848Z,100232.66
2022-09-20T16:34:36.782Z,100227.50
2022-09-20T16:37:12.335Z,100228.47
2022-09-20T16:39:40.478Z,100233.94
2022-09-20T16:42:09.368Z,100234.91
2022-09-20T16:44:39.094Z,100235.75
2022-09-20T16:47:10.635Z,100235.41
2022-09-20T16:49:38.435Z,100246.63
2022-09-20T16:52:07.977Z,100247.91
2022-09-20T16:54:35.332Z,100245.25
2022-09-20T16:57:02.808Z,100253.88
2022-09-20T16:59:30.046Z,100251.47
2022-09-20T17:01:57.795Z,100254.91
2022-09-20T17:04:25.479Z,100262.81
2022-09-20T17:06:53.230Z,100263.88
2022-09-20T17:09:20.422Z,100259.44
2022-09-20T17:11:50.395Z,100271.59
2022-09-20T17:14:20.526Z,100264.91
2022-09-20T17:16:48.890Z,100271.03
2022-09-20T17:19:19.534Z,100274.56
2022-09-20T17:21:50.859Z,100279.72
2022-09-20T17:24:23.085Z,100293.63
2022-09-20T17:26:52.226Z,100305.28
2022-09-20T17:29:21.535Z,100296.38
2022-09-20T17:31:55.668Z,100297.22
2022-09-20T17:34:24.708Z,100296.28
2022-09-20T17:36:52.519Z,100300.06
2022-09-20T17:39:19.695Z,100302.50
2022-09-20T17:41:49.217Z,100304.16
2022-09-20T17:44:16.909Z,100311.09
2022-09-20T17:46:46.808Z,100305.94
2022-09-20T17:49:20.415Z,100300.50
2022-09-20T17:51:53.285Z,100304.22
2022-09-20T17:54:22.029Z,100308.78
2022-09-20T17:56:51.606Z,100308.91
2022-09-20T17:59:20.049Z,100314.97
2022-09-20T18:01:50.054Z,100311.97
2022-09-20T18:04:17.734Z,100320.84
2022-09-20T18:06:50.706Z,100325.09
2022-09-20T18:09:24.810Z,100333.75
2022-09-20T18:11:54.315Z,100328.44
2022-09-20T18:14:27.707Z,100326.53
2022-09-20T18:17:01.037Z,100330.06
2022-09-20T18:19:33.183Z,100331.41
2022-09-20T18:22:01.922Z,100332.44
2022-09-20T18:24:29.995Z,100327.75
2022-09-20T18:26:56.975Z,100334.78
2022-09-20T18:29:24.861Z,100341.16
2022-09-20T18:31:58.092Z,100339.06
2022-09-20T18:34:33.855Z,100341.75
2022-09-20T18:37:02.966Z,100350.63
2022-09-20T18:39:32.727Z,100353.91
2022-09-20T18:42:00.429Z,100356.06
2022-09-20T18:44:34.105Z,100344.47
2022-09-20T18:47:03.366Z,100362.19
2022-09-20T18:49:30.862Z,100358.31
2022-09-20T18:51:58.527Z,100358.16
2022-09-20T18:54:25.830Z,100360.72
2022-09-20T18:56:53.988Z,100362.59
2022-09-20T18:59:24.444Z,100368.19
2022-09-20T19:01:54.225Z,100371.44
2022-09-20T19:04:46.209Z,100369.44
2022-09-20T19:07:28.201Z,100372.03
2022-09-20T19:10:08.547Z,100374.72
2022-09-20T19:12:50.455Z,100375.44
2022-09-20T19:15:32.053Z,100378.28
2022-09-20T19:18:56.374Z,100372.78
2022-09-20T19:22:08.243Z,100381.53
2022-09-20T19:24:50.121Z,100381.44
2022-09-20T19:27:17.462Z,100382.47
2022-09-20T19:29:44.983Z,100394.19
2022-09-20T19:32:21.248Z,100386.25
2022-09-20T19:34:55.918Z,100390.56
2022-09-20T19:38:03.637Z,100384.81
2022-09-20T19:41:02.692Z,100386.97
2022-09-20T19:44:00.112Z,100387.66
2022-09-20T19:46:52.715Z,100389.06
2022-09-20T19:49:25.201Z,100391.31
2022-09-20T19:51:52.518Z,100386.28
2022-09-20T19:54:19.731Z,100396.56
2022-09-20T19:56:59.355Z,100396.56
2022-09-20T19:59:28.064Z,100401.78
2022-09-20T20:01:56.534Z,100389.34
2022-09-20T20:04:24.132Z,100393.25
2022-09-20T20:07:08.281Z,100400.19
2022-09-20T20:09:58.684Z,100394.88
2022-09-20T20:12:59.054Z,100391.69
2022-09-20T20:15:41.283Z,100407.31
2022-09-20T20:18:27.836Z,100394.09
2022-09-20T20:20:56.873Z,100404.22
2022-09-20T20:23:53.357Z,100406.66
2022-09-20T20:26:26.775Z,100405.75
2022-09-20T20:28:54.333Z,100410.50
2022-09-20T20:31:21.723Z,100421.81
2022-09-20T20:33:49.455Z,100414.59
2022-09-20T20:36:17.608Z,100420.31
2022-09-20T20:38:49.699Z,100420.22
2022-09-20T20:41:20.420Z,100415.91
2022-09-20T20:43:48.597Z,100424.44
2022-09-20T20:46:20.203Z,100423.75
2022-09-20T20:48:47.892Z,100432.88
2022-09-20T20:51:22.937Z,100422.59
2022-09-20T20:53:54.980Z,100423.44
2022-09-20T20:56:30.077Z,100421.53
2022-09-20T20:59:01.164Z,100422.25
2022-09-20T21:01:33.831Z,100426.34
2022-09-20T21:04:01.768Z,100422.69
2022-09-20T21:06:32.142Z,100422.66
2022-09-20T21:08:59.613Z,100424.31
2022-09-20T21:11:29.967Z,100423.41
2022-09-20T21:13:59.781Z,100429.53
2022-09-20T21:16:31.091Z,100436.31
2022-09-20T21:18:58.954Z,100430.72
2022-09-20T21:21:33.434Z,100434.00
2022-09-20T21:24:06.488Z,100430.06
2022-09-20T21:26:35.375Z,100431.88
2022-09-20T21:29:05.761Z,100425.69
2022-09-20T21:31:36.791Z,100434.16
2022-09-20T21:34:10.153Z,100433.28
2022-09-20T21:36:39.251Z,100432.88
2022-09-20T21:39:06.649Z,100432.00
2022-09-20T21:41:36.911Z,100433.38
2022-09-20T21:44:05.891Z,100436.97
2022-09-20T21:46:37.170Z,100436.00
2022-09-20T21:49:06.171Z,100435.19
2022-09-20T21:51:34.163Z,100438.41
2022-09-20T21:54:02.341Z,100436.06
2022-09-20T21:56:33.363Z,100432.09
2022-09-20T21:59:03.749Z,100441.13
2022-09-20T22:01:35.425Z,100436.59
2022-09-20T22:04:11.634Z,100438.94
2022-09-20T22:06:44.564Z,100450.91
2022-09-20T22:09:17.111Z,100435.22
2022-09-20T22:11:47.547Z,100453.69
2022-09-20T22:14:18.230Z,100451.03
2022-09-20T22:16:47.056Z,100451.03
2022-09-20T22:19:16.966Z,100456.91
2022-09-20T22:21:47.870Z,100459.88
2022-09-20T22:24:18.810Z,100464.63
2022-09-20T22:26:49.604Z,100453.63
2022-09-20T22:29:17.787Z,100457.22
2022-09-20T22:31:46.736Z,100454.63
2022-09-20T22:34:17.452Z,100448.66
2022-09-20T22:36:45.353Z,100453.56
2022-09-20T22:39:13.127Z,100447.22
2022-09-20T22:41:41.529Z,100449.03
2022-09-20T22:44:09.302Z,100444.19
2022-09-20T22:46:37.170Z,100449.16
2022-09-20T22:49:09.205Z,100445.34
2022-09-20T22:51:37.574Z,100447.31
2022-09-20T22:54:08.242Z,100439.25
2022-09-20T22:56:36.313Z,100448.13
2022-09-20T22:59:13.138Z,100446.53
2022-09-20T23:01:45.998Z,100450.00
2022-09-20T23:04:18.969Z,100446.84
2022-09-20T23:06:49.301Z,100441.81
2022-09-20T23:09:18.176Z,100448.53
2022-09-20T23:11:45.785Z,100442.75
2022-09-20T23:14:16.542Z,100441.41
2022-09-20T23:16:43.983Z,100446.38
2022-09-20T23:19:12.902Z,100446.06
2022-09-20T23:21:41.777Z,100434.84
2022-09-20T23:24:12.519Z,100446.56
2022-09-20T23:26:41.660Z,100441.97
2022-09-20T23:29:16.496Z,100445.53
2022-09-20T23:31:46.869Z,100451.81
2022-09-20T23:34:15.976Z,100449.00
2022-09-20T23:36:44.429Z,100452.41
2022-09-20T23:39:11.995Z,100451.47
2022-09-20T23:41:39.484Z,100446.81
2022-09-20T23:44:07.415Z,100449.88
2022-09-20T23:46:34.828Z,100455.78
2022-09-20T23:49:03.269Z,100455.09
2022-09-20T23:51:30.802Z,100456.31
2022-09-20T23:53:58.392Z,100454.59
2022-09-20T23:56:26.462Z,100451.22
2022-09-20T23:58:54.161Z,100458.78
